Time;durP1;ratioP1;P1;durP2;ratioP2;P2;SDS_P1;SDS_P2;PMS_P1;PMS_P2;Temp;Humidity;BMP_temperature;BMP_pressure;BME280_temperature;BME280_humidity;BME280_pressure;Samples;Min_cycle;Max_cycle;Signal;HPM_P1;HPM_P2
2022/02/27 00:01:51;;;;;;;10.02;5.28;;;;;;;;;;4973487;28;20085;-78
2022/02/27 00:04:16;;;;;;;7.57;4.22;;;;;;;;;;4990072;28;20074;-79
2022/02/27 00:06:42;;;;;;;8.75;5.03;;;;;;;;;;4974956;28;20041;-78
2022/02/27 00:09:07;;;;;;;6.32;4.57;;;;;;;;;;4941406;28;20034;-78
2022/02/27 00:11:33;;;;;;;8.23;4.75;;;;;;;;;;4957705;28;20027;-78
2022/02/27 00:13:58;;;;;;;6.32;3.85;;;;;;;;;;4972999;28;20066;-79
2022/02/27 00:16:24;;;;;;;8.85;4.40;;;;;;;;;;4973283;28;20049;-79
2022/02/27 00:18:49;;;;;;;7.90;4.47;;;;;;;;;;4941500;28;20039;-79
2022/02/27 00:21:14;;;;;;;8.27;4.60;;;;;;;;;;4976826;28;20527;-78
2022/02/27 00:23:40;;;;;;;7.28;3.80;;;;;;;;;;4967591;28;20034;-78
2022/02/27 00:26:06;;;;;;;6.38;3.97;;;;;;;;;;4973461;28;20031;-79
2022/02/27 00:28:31;;;;;;;6.97;3.65;;;;;;;;;;4972882;28;20066;-78
2022/02/27 00:30:57;;;;;;;5.68;3.83;;;;;;;;;;4989544;28;20497;-78
2022/02/27 00:33:22;;;;;;;5.43;3.42;;;;;;;;;;4988945;28;20445;-78
2022/02/27 00:35:47;;;;;;;6.70;3.70;;;;;;;;;;4957193;28;20054;-79
2022/02/27 00:38:14;;;;;;;5.38;3.33;;;;;;;;;;4988262;28;20057;-78
2022/02/27 00:40:39;;;;;;;6.15;3.90;;;;;;;;;;4976429;28;20505;-78
2022/02/27 00:43:05;;;;;;;8.98;4.40;;;;;;;;;;4959958;28;20041;-79
2022/02/27 00:45:31;;;;;;;6.43;3.47;;;;;;;;;;4980130;28;20168;-79
2022/02/27 00:47:57;;;;;;;4.97;3.47;;;;;;;;;;4995252;28;20030;-78
2022/02/27 00:50:23;;;;;;;6.53;3.67;;;;;;;;;;5011853;28;20074;-79
2022/02/27 00:52:48;;;;;;;6.95;3.60;;;;;;;;;;5013097;28;20042;-78
2022/02/27 00:55:14;;;;;;;7.97;3.75;;;;;;;;;;4992227;28;20039;-78
2022/02/27 00:57:39;;;;;;;5.63;3.80;;;;;;;;;;4991810;28;20039;-78
2022/02/27 01:00:06;;;;;;;5.93;3.33;;;;;;;;;;4991964;28;20042;-79
2022/02/27 01:02:32;;;;;;;6.15;3.60;;;;;;;;;;4972154;28;20386;-78
2022/02/27 01:04:58;;;;;;;5.85;4.00;;;;;;;;;;4956673;28;20146;-79
2022/02/27 01:07:23;;;;;;;7.30;3.88;;;;;;;;;;4984762;28;20041;-79
2022/02/27 01:09:49;;;;;;;5.53;3.80;;;;;;;;;;4991772;28;20401;-78
2022/02/27 01:12:14;;;;;;;6.38;3.30;;;;;;;;;;4991379;28;20030;-78
2022/02/27 01:14:40;;;;;;;6.22;3.47;;;;;;;;;;4975574;28;20050;-78
2022/02/27 01:17:06;;;;;;;7.43;3.80;;;;;;;;;;4959080;28;20464;-78
2022/02/27 01:19:35;;;;;;;6.05;3.85;;;;;;;;;;4992087;28;20038;-78
2022/02/27 01:22:01;;;;;;;5.20;3.35;;;;;;;;;;4990180;28;20050;-78
2022/02/27 01:24:26;;;;;;;6.65;3.42;;;;;;;;;;4956114;28;20042;-78
2022/02/27 01:26:52;;;;;;;6.00;3.30;;;;;;;;;;4956010;28;20039;-78
2022/02/27 01:29:18;;;;;;;6.18;3.80;;;;;;;;;;4956119;28;20039;-78
2022/02/27 01:31:43;;;;;;;5.55;2.67;;;;;;;;;;4956064;28;20066;-78
2022/02/27 01:34:09;;;;;;;5.85;2.83;;;;;;;;;;4955631;28;20484;-78
2022/02/27 01:36:34;;;;;;;6.25;3.58;;;;;;;;;;4964508;28;20464;-78
2022/02/27 01:39:00;;;;;;;5.53;2.72;;;;;;;;;;4955976;28;20077;-78
2022/02/27 01:41:25;;;;;;;4.20;2.60;;;;;;;;;;4955857;28;20035;-78
2022/02/27 01:43:51;;;;;;;5.90;3.13;;;;;;;;;;4960521;28;20038;-78
2022/02/27 01:46:17;;;;;;;6.88;2.85;;;;;;;;;;5001297;28;20042;-78
2022/02/27 01:48:42;;;;;;;7.07;3.10;;;;;;;;;;4994717;28;20488;-78
2022/02/27 01:51:09;;;;;;;5.22;2.75;;;;;;;;;;5016740;28;20140;-78
2022/02/27 01:53:34;;;;;;;5.25;2.60;;;;;;;;;;4991294;28;20078;-78
2022/02/27 01:56:00;;;;;;;5.22;2.50;;;;;;;;;;4975179;28;20049;-78
2022/02/27 01:58:26;;;;;;;4.05;2.33;;;;;;;;;;4990440;28;20045;-78
2022/02/27 02:00:52;;;;;;;6.05;2.72;;;;;;;;;;4971284;28;20102;-78
2022/02/27 02:03:18;;;;;;;6.45;2.90;;;;;;;;;;4971891;28;20039;-78
2022/02/27 02:05:43;;;;;;;6.20;3.30;;;;;;;;;;4943894;28;20037;-78
2022/02/27 02:08:08;;;;;;;6.43;3.05;;;;;;;;;;4939592;28;20563;-78
2022/02/27 02:10:34;;;;;;;5.55;2.67;;;;;;;;;;4955509;28;20039;-78
2022/02/27 02:13:00;;;;;;;4.78;2.30;;;;;;;;;;4939347;28;20158;-78
2022/02/27 02:15:25;;;;;;;4.40;2.67;;;;;;;;;;4939194;28;20081;-78
2022/02/27 02:17:51;;;;;;;6.55;2.80;;;;;;;;;;4970829;28;20042;-78
2022/02/27 02:20:17;;;;;;;5.32;3.10;;;;;;;;;;4972303;28;20169;-79
2022/02/27 02:22:42;;;;;;;3.80;1.90;;;;;;;;;;4939408;28;20031;-78
2022/02/27 02:25:08;;;;;;;4.80;2.33;;;;;;;;;;4971278;28;20058;-78
2022/02/27 02:27:34;;;;;;;4.13;2.13;;;;;;;;;;4987446;28;20082;-78
2022/02/27 02:30:00;;;;;;;4.85;2.47;;;;;;;;;;4954988;28;20130;-78
2022/02/27 02:32:25;;;;;;;4.10;1.80;;;;;;;;;;4971261;28;20103;-78
2022/02/27 02:34:51;;;;;;;5.20;2.10;;;;;;;;;;4971558;28;20081;-78
2022/02/27 02:37:16;;;;;;;5.75;1.90;;;;;;;;;;4943353;28;20034;-78
2022/02/27 02:39:42;;;;;;;3.92;2.05;;;;;;;;;;4972818;28;20038;-78
2022/02/27 02:42:07;;;;;;;4.28;2.25;;;;;;;;;;4955003;28;20553;-78
2022/02/27 02:44:33;;;;;;;3.95;2.10;;;;;;;;;;4965971;28;20046;-79
2022/02/27 02:46:59;;;;;;;4.25;2.65;;;;;;;;;;4997583;28;20047;-78
2022/02/27 02:49:24;;;;;;;5.32;2.45;;;;;;;;;;4990076;28;20069;-78
2022/02/27 02:51:50;;;;;;;3.42;2.10;;;;;;;;;;4990485;28;20117;-77
2022/02/27 02:54:15;;;;;;;7.95;2.70;;;;;;;;;;4990518;28;20030;-78
2022/02/27 02:56:41;;;;;;;3.42;1.80;;;;;;;;;;4974372;28;20038;-79
2022/02/27 02:59:06;;;;;;;5.82;1.88;;;;;;;;;;4958012;28;20022;-78
2022/02/27 03:01:32;;;;;;;3.10;1.83;;;;;;;;;;4970911;28;20047;-78
2022/02/27 03:03:58;;;;;;;4.40;2.40;;;;;;;;;;4980744;28;20115;-78
2022/02/27 03:06:23;;;;;;;5.88;2.40;;;;;;;;;;4971415;28;20049;-78
2022/02/27 03:08:49;;;;;;;4.53;2.25;;;;;;;;;;4972165;28;20035;-78
2022/02/27 03:11:15;;;;;;;5.40;2.63;;;;;;;;;;4968298;28;20042;-78
2022/02/27 03:13:40;;;;;;;4.28;2.03;;;;;;;;;;4961382;28;20039;-78
2022/02/27 03:16:06;;;;;;;5.22;1.98;;;;;;;;;;4977811;28;20049;-77
2022/02/27 03:18:32;;;;;;;6.00;3.30;;;;;;;;;;4969762;28;20062;-78
2022/02/27 03:20:59;;;;;;;5.70;2.25;;;;;;;;;;4974479;28;20050;-78
2022/02/27 03:23:26;;;;;;;3.85;2.20;;;;;;;;;;4975224;28;20122;-78
2022/02/27 03:25:52;;;;;;;4.25;2.08;;;;;;;;;;4990469;28;20035;-78
2022/02/27 03:28:18;;;;;;;4.20;1.95;;;;;;;;;;4958048;28;20397;-78
2022/02/27 03:30:43;;;;;;;6.07;2.20;;;;;;;;;;4990734;28;20122;-78
2022/02/27 03:33:09;;;;;;;4.70;2.03;;;;;;;;;;4990312;28;20039;-78
2022/02/27 03:35:34;;;;;;;5.00;1.77;;;;;;;;;;4990334;28;20050;-78
2022/02/27 03:38:00;;;;;;;4.25;2.10;;;;;;;;;;4990448;28;20410;-78
2022/02/27 03:40:25;;;;;;;4.38;2.10;;;;;;;;;;4988560;28;20047;-78
2022/02/27 03:42:51;;;;;;;4.18;2.45;;;;;;;;;;4960845;28;20038;-78
2022/02/27 03:45:16;;;;;;;3.33;1.80;;;;;;;;;;4979224;28;20065;-78
2022/02/27 03:47:42;;;;;;;4.53;2.60;;;;;;;;;;5009987;28;20047;-78
2022/02/27 03:50:09;;;;;;;3.75;1.80;;;;;;;;;;4958326;28;20114;-78
2022/02/27 03:52:35;;;;;;;3.05;2.08;;;;;;;;;;4958056;28;20040;-78
2022/02/27 03:55:01;;;;;;;6.93;2.70;;;;;;;;;;4973704;28;20049;-78
2022/02/27 03:57:27;;;;;;;5.18;2.17;;;;;;;;;;4957850;28;20047;-78
2022/02/27 03:59:52;;;;;;;3.85;2.15;;;;;;;;;;4989659;28;20587;-78
2022/02/27 04:02:18;;;;;;;4.00;2.03;;;;;;;;;;4973877;28;20041;-78
2022/02/27 04:04:43;;;;;;;4.05;2.00;;;;;;;;;;4978451;28;20031;-79
2022/02/27 04:07:09;;;;;;;3.70;2.08;;;;;;;;;;4957568;28;20039;-78
2022/02/27 04:09:34;;;;;;;3.97;1.83;;;;;;;;;;4957376;28;20090;-78
2022/02/27 04:12:00;;;;;;;3.95;2.42;;;;;;;;;;4961708;28;20441;-78
2022/02/27 04:14:25;;;;;;;4.78;1.98;;;;;;;;;;4956891;28;20461;-78
2022/02/27 04:16:50;;;;;;;5.15;1.92;;;;;;;;;;4973644;28;20402;-78
2022/02/27 04:19:16;;;;;;;4.45;2.08;;;;;;;;;;4973769;28;20039;-78
2022/02/27 04:21:42;;;;;;;3.92;2.28;;;;;;;;;;4972346;28;20069;-78
2022/02/27 04:24:07;;;;;;;4.50;1.92;;;;;;;;;;4976182;28;20046;-78
2022/02/27 04:26:32;;;;;;;5.22;2.38;;;;;;;;;;4976414;28;20400;-78
2022/02/27 04:28:58;;;;;;;3.35;1.58;;;;;;;;;;4976447;28;20069;-78
2022/02/27 04:31:23;;;;;;;4.13;1.95;;;;;;;;;;4976425;28;20038;-78
2022/02/27 04:33:49;;;;;;;2.72;1.60;;;;;;;;;;4976606;28;20034;-78
2022/02/27 04:36:14;;;;;;;4.88;2.20;;;;;;;;;;4976506;28;20050;-78
2022/02/27 04:38:40;;;;;;;5.53;2.08;;;;;;;;;;4975503;28;20401;-78
2022/02/27 04:41:05;;;;;;;4.38;1.88;;;;;;;;;;4960049;28;20042;-78
2022/02/27 04:43:30;;;;;;;4.85;1.92;;;;;;;;;;4959638;28;20145;-78
2022/02/27 04:45:56;;;;;;;5.07;2.30;;;;;;;;;;4983737;28;20064;-78
2022/02/27 04:48:21;;;;;;;3.92;1.65;;;;;;;;;;5028395;28;20504;-78
2022/02/27 04:50:47;;;;;;;4.88;1.80;;;;;;;;;;5028226;28;20033;-78
2022/02/27 04:53:13;;;;;;;4.60;2.20;;;;;;;;;;5007943;28;20056;-78
2022/02/27 04:55:39;;;;;;;3.58;1.90;;;;;;;;;;4975965;28;20034;-78
2022/02/27 04:58:04;;;;;;;4.22;1.95;;;;;;;;;;4992001;28;20034;-78
2022/02/27 05:00:30;;;;;;;6.28;2.05;;;;;;;;;;4991626;28;20038;-78
2022/02/27 05:02:55;;;;;;;5.13;2.08;;;;;;;;;;4976131;28;20041;-78
2022/02/27 05:05:21;;;;;;;4.80;1.60;;;;;;;;;;4991605;28;20035;-78
2022/02/27 05:07:46;;;;;;;3.80;2.15;;;;;;;;;;4973772;28;20065;-78
2022/02/27 05:10:12;;;;;;;4.60;2.33;;;;;;;;;;4956026;28;20375;-78
2022/02/27 05:12:38;;;;;;;4.78;1.90;;;;;;;;;;4956009;28;20050;-78
2022/02/27 05:15:05;;;;;;;7.38;2.25;;;;;;;;;;4956164;28;20043;-78
2022/02/27 05:17:30;;;;;;;3.78;1.80;;;;;;;;;;4972689;28;20047;-78
2022/02/27 05:19:56;;;;;;;4.75;2.00;;;;;;;;;;4956455;28;20093;-77
2022/02/27 05:22:21;;;;;;;4.05;2.10;;;;;;;;;;4955889;28;20062;-78
2022/02/27 05:24:47;;;;;;;4.57;2.10;;;;;;;;;;4956067;28;20031;-78
2022/02/27 05:27:12;;;;;;;3.47;1.50;;;;;;;;;;4956237;28;20038;-78
2022/02/27 05:29:37;;;;;;;4.03;1.60;;;;;;;;;;4955780;28;20126;-78
2022/02/27 05:32:03;;;;;;;4.40;2.08;;;;;;;;;;4957813;28;20039;-78
2022/02/27 05:34:28;;;;;;;3.83;1.70;;;;;;;;;;4970929;28;20042;-78
2022/02/27 05:36:54;;;;;;;4.15;1.42;;;;;;;;;;4971595;28;20120;-78
2022/02/27 05:39:19;;;;;;;2.95;1.60;;;;;;;;;;4955903;28;20067;-78
2022/02/27 05:41:45;;;;;;;4.97;1.90;;;;;;;;;;4990186;28;20394;-78
2022/02/27 05:44:10;;;;;;;5.88;1.95;;;;;;;;;;4958321;28;20042;-78
2022/02/27 05:46:36;;;;;;;4.03;1.50;;;;;;;;;;4981666;28;20050;-78
2022/02/27 05:49:01;;;;;;;2.75;1.38;;;;;;;;;;4986973;28;20511;-78
2022/02/27 05:51:27;;;;;;;3.67;1.48;;;;;;;;;;5007389;28;20168;-78
2022/02/27 05:53:52;;;;;;;4.65;1.73;;;;;;;;;;4974779;28;20042;-78
2022/02/27 05:56:18;;;;;;;3.65;1.67;;;;;;;;;;4962117;28;20500;-79
2022/02/27 05:58:43;;;;;;;4.05;2.08;;;;;;;;;;4958890;28;20042;-78
2022/02/27 06:01:09;;;;;;;4.70;2.22;;;;;;;;;;4991393;28;20065;-77
2022/02/27 06:03:35;;;;;;;4.78;2.38;;;;;;;;;;4991075;28;20069;-78
2022/02/27 06:06:00;;;;;;;4.15;1.77;;;;;;;;;;4974722;28;20428;-78
2022/02/27 06:08:26;;;;;;;3.60;2.17;;;;;;;;;;4974986;28;20401;-78
2022/02/27 06:10:51;;;;;;;4.65;1.30;;;;;;;;;;4971273;28;20050;-78
2022/02/27 06:13:16;;;;;;;5.40;1.58;;;;;;;;;;4969254;28;20421;-78
2022/02/27 06:15:42;;;;;;;4.07;1.40;;;;;;;;;;4955148;28;20085;-78
2022/02/27 06:18:07;;;;;;;4.18;1.67;;;;;;;;;;4955603;28;20041;-78
2022/02/27 06:20:33;;;;;;;5.07;1.92;;;;;;;;;;4987501;28;20109;-78
2022/02/27 06:22:58;;;;;;;4.03;1.73;;;;;;;;;;4955457;28;20038;-78
2022/02/27 06:25:24;;;;;;;3.25;1.58;;;;;;;;;;4987554;28;20038;-78
2022/02/27 06:27:49;;;;;;;3.08;1.15;;;;;;;;;;4955328;28;20038;-78
2022/02/27 06:30:19;;;;;;;3.33;1.20;;;;;;;;;;4971482;28;20108;-78
2022/02/27 06:32:47;;;;;;;4.60;1.80;;;;;;;;;;4971563;28;20114;-78
2022/02/27 06:35:13;;;;;;;2.60;1.20;;;;;;;;;;4939161;28;20478;-77
2022/02/27 06:37:38;;;;;;;3.53;1.42;;;;;;;;;;4939673;28;20031;-78
2022/02/27 06:40:06;;;;;;;4.38;1.65;;;;;;;;;;4955192;28;20387;-78
2022/02/27 06:42:31;;;;;;;3.40;1.50;;;;;;;;;;4980875;28;20113;-78
2022/02/27 06:44:57;;;;;;;3.08;1.83;;;;;;;;;;4993612;28;20409;-78
2022/02/27 06:47:22;;;;;;;3.45;1.42;;;;;;;;;;5006246;28;20041;-78
2022/02/27 06:49:48;;;;;;;3.47;1.50;;;;;;;;;;4978091;28;20065;-77
2022/02/27 06:52:13;;;;;;;4.55;1.52;;;;;;;;;;4992728;28;20408;-77
2022/02/27 06:54:39;;;;;;;6.45;1.90;;;;;;;;;;4957675;28;20046;-77
2022/02/27 06:57:05;;;;;;;3.60;1.60;;;;;;;;;;4970928;28;20042;-77
2022/02/27 06:59:30;;;;;;;6.80;1.83;;;;;;;;;;4958638;28;20054;-77
2022/02/27 07:01:55;;;;;;;4.22;1.80;;;;;;;;;;5009489;28;20089;-77
2022/02/27 07:04:21;;;;;;;4.07;1.40;;;;;;;;;;4993946;28;20040;-77
2022/02/27 07:06:46;;;;;;;2.85;1.42;;;;;;;;;;4992957;28;20079;-77
2022/02/27 07:09:14;;;;;;;3.10;1.30;;;;;;;;;;4993656;28;20416;-77
2022/02/27 07:11:44;;;;;;;3.60;1.17;;;;;;;;;;5009037;28;20041;-76
2022/02/27 07:14:13;;;;;;;6.32;2.53;;;;;;;;;;4976784;28;20046;-77
2022/02/27 07:17:04;;;;;;;3.65;1.20;;;;;;;;;;4974998;28;20047;-78
2022/02/27 07:19:30;;;;;;;6.35;2.17;;;;;;;;;;4973499;28;20042;-77
2022/02/27 07:21:55;;;;;;;5.03;2.00;;;;;;;;;;4957134;28;20066;-77
2022/02/27 07:24:21;;;;;;;5.07;1.27;;;;;;;;;;4990600;28;20052;-77
2022/02/27 07:26:46;;;;;;;6.90;1.50;;;;;;;;;;4958268;28;20046;-77
2022/02/27 07:29:11;;;;;;;2.92;1.23;;;;;;;;;;4976265;28;20038;-77
2022/02/27 07:31:37;;;;;;;6.78;1.88;;;;;;;;;;4977312;28;20030;-77
2022/02/27 07:34:02;;;;;;;8.23;1.88;;;;;;;;;;4974702;28;20115;-78
2022/02/27 07:36:28;;;;;;;8.80;2.63;;;;;;;;;;4957972;28;20460;-77
2022/02/27 07:38:53;;;;;;;18.58;3.75;;;;;;;;;;4974327;28;20039;-78
2022/02/27 07:41:19;;;;;;;63.88;14.60;;;;;;;;;;4987840;28;20500;-78
2022/02/27 07:43:45;;;;;;;43.30;15.35;;;;;;;;;;4991570;28;20061;-78
2022/02/27 07:46:10;;;;;;;24.23;13.90;;;;;;;;;;4977459;28;20046;-77
2022/02/27 07:48:36;;;;;;;32.38;14.35;;;;;;;;;;4973516;28;20074;-78
2022/02/27 07:51:01;;;;;;;33.80;12.70;;;;;;;;;;4973771;28;20068;-78
2022/02/27 07:53:27;;;;;;;23.08;12.18;;;;;;;;;;4974225;28;20429;-77
2022/02/27 07:55:52;;;;;;;23.40;11.27;;;;;;;;;;4972994;28;20027;-77
2022/02/27 07:58:18;;;;;;;23.15;12.98;;;;;;;;;;4976606;28;20030;-78
2022/02/27 08:00:43;;;;;;;16.92;9.77;;;;;;;;;;4992945;28;20404;-77
2022/02/27 08:03:09;;;;;;;17.15;11.63;;;;;;;;;;4976298;28;20046;-78
2022/02/27 08:05:34;;;;;;;18.83;10.13;;;;;;;;;;4973781;28;20480;-78
2022/02/27 08:08:00;;;;;;;13.00;7.95;;;;;;;;;;4976032;28;20036;-78
2022/02/27 08:10:26;;;;;;;11.70;8.23;;;;;;;;;;4992637;28;20045;-78
2022/02/27 08:12:52;;;;;;;14.48;8.13;;;;;;;;;;4992970;28;20042;-77
2022/02/27 08:15:18;;;;;;;12.73;8.05;;;;;;;;;;4990738;28;20066;-78
2022/02/27 08:17:43;;;;;;;12.32;7.40;;;;;;;;;;4969579;28;20548;-78
2022/02/27 08:20:09;;;;;;;10.63;6.22;;;;;;;;;;5000313;28;20400;-78
2022/02/27 08:22:36;;;;;;;12.18;6.55;;;;;;;;;;4991933;28;20042;-78
2022/02/27 08:25:05;;;;;;;13.35;6.80;;;;;;;;;;4991420;28;20505;-77
2022/02/27 08:27:31;;;;;;;13.25;6.03;;;;;;;;;;4991401;28;20077;-78
2022/02/27 08:29:56;;;;;;;10.38;5.57;;;;;;;;;;4992272;28;20065;-77
2022/02/27 08:32:22;;;;;;;15.65;6.72;;;;;;;;;;4988858;28;20038;-77
2022/02/27 08:34:47;;;;;;;10.20;6.45;;;;;;;;;;5005702;28;20408;-77
2022/02/27 08:37:13;;;;;;;11.35;6.82;;;;;;;;;;4989165;28;20424;-77
2022/02/27 08:39:38;;;;;;;9.25;5.40;;;;;;;;;;4989036;28;20054;-78
2022/02/27 08:42:04;;;;;;;10.88;5.32;;;;;;;;;;4971363;28;20084;-78
2022/02/27 08:44:33;;;;;;;11.98;5.72;;;;;;;;;;4987640;28;20038;-78
2022/02/27 08:47:00;;;;;;;9.30;5.38;;;;;;;;;;4987411;28;20034;-78
2022/02/27 08:49:25;;;;;;;8.82;5.28;;;;;;;;;;4956791;28;20104;-78
2022/02/27 08:51:51;;;;;;;8.02;4.40;;;;;;;;;;4956950;28;20521;-77
2022/02/27 08:54:17;;;;;;;9.07;4.70;;;;;;;;;;4990504;28;20125;-77
2022/02/27 08:56:42;;;;;;;10.65;4.75;;;;;;;;;;4992059;28;20113;-77
2022/02/27 08:59:08;;;;;;;12.35;6.82;;;;;;;;;;4991701;28;20041;-77
2022/02/27 09:01:33;;;;;;;13.52;9.48;;;;;;;;;;5007870;28;20409;-77
2022/02/27 09:03:59;;;;;;;13.73;9.25;;;;;;;;;;4990676;28;20401;-77
2022/02/27 09:06:24;;;;;;;16.20;8.25;;;;;;;;;;4990470;28;20034;-77
2022/02/27 09:08:50;;;;;;;9.77;6.60;;;;;;;;;;4987301;28;20086;-77
2022/02/27 09:11:16;;;;;;;12.98;7.40;;;;;;;;;;5007017;28;20412;-77
2022/02/27 09:13:41;;;;;;;12.50;7.13;;;;;;;;;;5006195;28;20052;-77
2022/02/27 09:16:07;;;;;;;10.90;6.75;;;;;;;;;;4972128;28;20413;-76
2022/02/27 09:18:32;;;;;;;10.20;7.47;;;;;;;;;;4974724;28;20038;-76
2022/02/27 09:20:58;;;;;;;14.20;8.00;;;;;;;;;;5006217;28;20030;-77
2022/02/27 09:23:23;;;;;;;10.38;6.60;;;;;;;;;;4990655;28;20070;-77
2022/02/27 09:25:49;;;;;;;18.17;12.18;;;;;;;;;;4990555;28;20555;-78
2022/02/27 09:28:15;;;;;;;27.75;18.55;;;;;;;;;;4990033;28;20145;-78
2022/02/27 09:30:40;;;;;;;23.33;17.38;;;;;;;;;;5006525;28;20049;-78
2022/02/27 09:33:05;;;;;;;32.90;22.08;;;;;;;;;;4986838;28;20042;-77
2022/02/27 09:35:31;;;;;;;43.88;31.95;;;;;;;;;;4938539;28;20058;-78
2022/02/27 09:37:57;;;;;;;34.08;24.63;;;;;;;;;;4970537;28;20061;-78
2022/02/27 09:40:24;;;;;;;562.80;485.33;;;;;;;;;;4961615;28;20030;-78
2022/02/27 09:42:50;;;;;;;536.60;459.70;;;;;;;;;;4989814;28;20326;-77
2022/02/27 09:45:15;;;;;;;104.28;78.47;;;;;;;;;;5008263;28;20117;-78
2022/02/27 09:47:41;;;;;;;57.53;43.17;;;;;;;;;;4973159;28;20057;-77
2022/02/27 09:50:06;;;;;;;38.95;25.85;;;;;;;;;;4974645;28;20049;-78
2022/02/27 09:52:32;;;;;;;33.35;23.52;;;;;;;;;;4974519;28;20097;-77
2022/02/27 09:54:58;;;;;;;27.45;19.42;;;;;;;;;;4990930;28;20033;-78
2022/02/27 09:57:23;;;;;;;27.38;18.63;;;;;;;;;;4974654;28;20038;-78
2022/02/27 09:59:49;;;;;;;23.33;15.57;;;;;;;;;;4984232;28;20030;-78
2022/02/27 10:02:15;;;;;;;24.60;17.30;;;;;;;;;;4956824;28;20078;-78
2022/02/27 10:04:41;;;;;;;25.25;17.00;;;;;;;;;;4983243;28;20478;-78
2022/02/27 10:07:11;;;;;;;24.35;16.50;;;;;;;;;;4989398;28;20093;-77
2022/02/27 10:09:37;;;;;;;23.23;15.60;;;;;;;;;;4974533;28;20037;-77
2022/02/27 10:12:21;;;;;;;21.90;15.52;;;;;;;;;;5007198;28;20038;-78
2022/02/27 10:15:06;;;;;;;24.08;15.00;;;;;;;;;;4990453;28;20065;-78
2022/02/27 10:17:39;;;;;;;21.35;13.75;;;;;;;;;;4971644;28;20390;-78
2022/02/27 10:20:15;;;;;;;20.02;14.88;;;;;;;;;;4955222;28;20035;-78
2022/02/27 10:22:45;;;;;;;17.25;12.32;;;;;;;;;;4973516;28;20038;-78
2022/02/27 10:25:20;;;;;;;16.17;11.77;;;;;;;;;;5003109;28;20092;-78
2022/02/27 10:27:51;;;;;;;16.65;10.60;;;;;;;;;;4986151;28;20065;-78
2022/02/27 10:30:32;;;;;;;13.38;9.45;;;;;;;;;;4989583;28;20121;-78
2022/02/27 10:33:16;;;;;;;12.18;8.75;;;;;;;;;;4990926;28;20049;-78
2022/02/27 10:35:50;;;;;;;13.18;8.55;;;;;;;;;;4974690;28;20062;-78
2022/02/27 10:38:17;;;;;;;10.30;7.43;;;;;;;;;;4975110;28;20050;-78
2022/02/27 10:40:46;;;;;;;10.27;6.95;;;;;;;;;;4964215;28;20038;-78
2022/02/27 10:43:12;;;;;;;9.68;6.53;;;;;;;;;;4971188;28;20089;-78
2022/02/27 10:45:38;;;;;;;8.70;5.90;;;;;;;;;;4990087;28;20492;-78
2022/02/27 10:48:06;;;;;;;8.60;5.93;;;;;;;;;;5010403;28;20038;-78
2022/02/27 10:50:31;;;;;;;8.52;4.82;;;;;;;;;;4993814;28;20030;-78
2022/02/27 10:52:57;;;;;;;8.27;4.57;;;;;;;;;;4994209;28;20044;-78
2022/02/27 10:55:22;;;;;;;6.85;4.60;;;;;;;;;;5026292;28;20026;-78
2022/02/27 10:57:50;;;;;;;6.75;4.25;;;;;;;;;;5026414;28;20405;-78
2022/02/27 11:00:29;;;;;;;6.40;3.47;;;;;;;;;;4980216;28;20050;-78
2022/02/27 11:02:59;;;;;;;4.68;3.45;;;;;;;;;;4971325;28;20035;-78
2022/02/27 11:05:54;;;;;;;5.53;3.13;;;;;;;;;;4970672;28;20039;-78
2022/02/27 11:08:19;;;;;;;5.75;2.63;;;;;;;;;;4957203;28;20055;-79
2022/02/27 11:10:45;;;;;;;5.15;2.83;;;;;;;;;;4970690;28;20519;-78
2022/02/27 11:13:11;;;;;;;5.72;3.35;;;;;;;;;;4970950;28;20039;-79
2022/02/27 11:15:37;;;;;;;4.80;2.75;;;;;;;;;;4963075;28;20114;-78
2022/02/27 11:18:03;;;;;;;4.72;2.10;;;;;;;;;;4990309;28;20108;-78
2022/02/27 11:20:29;;;;;;;4.82;2.53;;;;;;;;;;4991592;28;20034;-78
2022/02/27 11:22:55;;;;;;;3.78;1.90;;;;;;;;;;4990426;28;20042;-78
2022/02/27 11:25:21;;;;;;;4.20;2.17;;;;;;;;;;5006335;28;20046;-78
2022/02/27 11:27:51;;;;;;;3.72;1.83;;;;;;;;;;4990214;28;20508;-78
2022/02/27 11:30:26;;;;;;;5.00;1.75;;;;;;;;;;4996180;28;20101;-78
2022/02/27 11:32:53;;;;;;;4.00;1.90;;;;;;;;;;4980873;28;20110;-78
2022/02/27 11:35:34;;;;;;;4.55;1.90;;;;;;;;;;4993581;28;20173;-78
2022/02/27 11:38:00;;;;;;;4.05;1.83;;;;;;;;;;5010098;28;20049;-78
2022/02/27 11:40:28;;;;;;;3.35;1.90;;;;;;;;;;4985550;28;20129;-78
2022/02/27 11:42:54;;;;;;;5.53;1.75;;;;;;;;;;4989773;28;20125;-78
2022/02/27 11:45:39;;;;;;;3.85;1.80;;;;;;;;;;4974004;28;20035;-79
2022/02/27 11:48:05;;;;;;;2.72;1.60;;;;;;;;;;5000144;28;20512;-78
2022/02/27 11:50:33;;;;;;;3.80;1.80;;;;;;;;;;4993329;28;20065;-78
2022/02/27 11:52:59;;;;;;;3.33;1.83;;;;;;;;;;5009746;28;20117;-78
2022/02/27 11:55:43;;;;;;;4.22;2.33;;;;;;;;;;4976741;28;20042;-78
2022/02/27 11:58:27;;;;;;;4.88;2.42;;;;;;;;;;4994262;28;20038;-78
2022/02/27 12:00:54;;;;;;;6.13;4.18;;;;;;;;;;5007722;28;20568;-78
2022/02/27 12:03:31;;;;;;;6.18;3.30;;;;;;;;;;4992942;28;20065;-78
2022/02/27 12:06:04;;;;;;;4.80;3.08;;;;;;;;;;4994152;28;20038;-79
2022/02/27 12:08:51;;;;;;;3.83;2.53;;;;;;;;;;4987188;28;20046;-78
2022/02/27 12:11:25;;;;;;;4.47;2.75;;;;;;;;;;4974464;28;20037;-79
2022/02/27 12:13:58;;;;;;;5.18;2.70;;;;;;;;;;4992751;28;20105;-78
2022/02/27 12:16:43;;;;;;;4.43;3.10;;;;;;;;;;4977105;28;20517;-78
2022/02/27 12:19:29;;;;;;;4.53;2.85;;;;;;;;;;4976885;28;20239;-78
2022/02/27 12:21:58;;;;;;;5.45;2.30;;;;;;;;;;4992903;28;20066;-78
2022/02/27 12:24:33;;;;;;;4.47;2.50;;;;;;;;;;4960965;28;20509;-78
2022/02/27 12:26:59;;;;;;;2.95;1.88;;;;;;;;;;4960822;28;20046;-78
2022/02/27 12:29:37;;;;;;;4.00;1.98;;;;;;;;;;4993097;28;20054;-78
2022/02/27 12:32:11;;;;;;;3.42;1.90;;;;;;;;;;4992755;28;20038;-78
2022/02/27 12:34:36;;;;;;;4.00;1.95;;;;;;;;;;4977161;28;20092;-78
2022/02/27 12:37:02;;;;;;;3.47;1.48;;;;;;;;;;4961027;28;20500;-78
2022/02/27 12:39:36;;;;;;;3.05;1.63;;;;;;;;;;4986354;28;20073;-78
2022/02/27 12:42:02;;;;;;;3.50;1.35;;;;;;;;;;4956825;28;20441;-78
2022/02/27 12:44:33;;;;;;;2.95;1.30;;;;;;;;;;4951040;28;20050;-78
2022/02/27 12:46:59;;;;;;;2.90;1.60;;;;;;;;;;5022818;28;20068;-78
2022/02/27 12:52:16;;;;;;;1.65;0.90;;;;;;;;;;5011195;28;20033;-78
2022/02/27 12:54:41;;;;;;;2.33;1.40;;;;;;;;;;5004314;28;20069;-78
2022/02/27 12:57:08;;;;;;;4.03;1.13;;;;;;;;;;4987701;28;20137;-78
2022/02/27 12:59:37;;;;;;;1.90;0.80;;;;;;;;;;4991987;28;20120;-78
2022/02/27 13:02:04;;;;;;;2.30;1.00;;;;;;;;;;4987665;28;20038;-78
2022/02/27 13:04:30;;;;;;;2.50;0.90;;;;;;;;;;4985923;28;20496;-79
2022/02/27 13:07:00;;;;;;;2.05;0.82;;;;;;;;;;4972457;28;20041;-79
2022/02/27 13:09:26;;;;;;;2.63;0.90;;;;;;;;;;4988043;28;20046;-79
2022/02/27 13:11:53;;;;;;;1.77;0.80;;;;;;;;;;4991599;28;20402;-79
2022/02/27 13:14:19;;;;;;;3.17;0.90;;;;;;;;;;4991957;28;20046;-78
2022/02/27 13:16:49;;;;;;;2.53;1.20;;;;;;;;;;4987162;28;20031;-79
2022/02/27 13:19:29;;;;;;;2.00;0.90;;;;;;;;;;4939939;28;20039;-78
2022/02/27 13:21:55;;;;;;;3.95;1.25;;;;;;;;;;4971345;28;20031;-79
2022/02/27 13:24:29;;;;;;;1.52;0.77;;;;;;;;;;4961678;28;20575;-79
2022/02/27 13:26:55;;;;;;;2.00;1.00;;;;;;;;;;4956389;28;20042;-79
2022/02/27 13:29:20;;;;;;;3.47;0.98;;;;;;;;;;4955451;28;20043;-79
2022/02/27 13:31:48;;;;;;;5.90;1.23;;;;;;;;;;4956196;28;20093;-79
2022/02/27 13:34:14;;;;;;;5.07;1.25;;;;;;;;;;4956365;28;20043;-78
2022/02/27 13:36:39;;;;;;;4.90;1.23;;;;;;;;;;4955712;28;20038;-78
2022/02/27 13:39:08;;;;;;;4.22;0.90;;;;;;;;;;4971823;28;20075;-78
2022/02/27 13:41:36;;;;;;;5.93;0.90;;;;;;;;;;4956144;28;20505;-78
2022/02/27 13:44:01;;;;;;;4.57;1.13;;;;;;;;;;4961534;28;20038;-78
2022/02/27 13:46:30;;;;;;;3.85;1.08;;;;;;;;;;4986290;28;20080;-78
2022/02/27 13:49:09;;;;;;;8.15;1.52;;;;;;;;;;5024606;28;20025;-76
2022/02/27 13:51:34;;;;;;;14.00;2.80;;;;;;;;;;4974420;28;20839;-77
2022/02/27 13:54:12;;;;;;;10.85;1.60;;;;;;;;;;4986000;28;20039;-77
2022/02/27 13:56:38;;;;;;;12.88;2.35;;;;;;;;;;4990614;28;20041;-78
2022/02/27 13:59:18;;;;;;;14.85;1.70;;;;;;;;;;5006444;28;20405;-78
2022/02/27 14:01:44;;;;;;;8.98;1.77;;;;;;;;;;4970106;28;20069;-78
2022/02/27 14:04:09;;;;;;;11.90;1.95;;;;;;;;;;5003872;28;20042;-78
2022/02/27 14:06:35;;;;;;;14.48;1.80;;;;;;;;;;4967605;28;20524;-78
2022/02/27 14:09:00;;;;;;;6.03;1.88;;;;;;;;;;4988505;28;20500;-78
2022/02/27 14:11:27;;;;;;;9.60;2.20;;;;;;;;;;4973578;28;20454;-78
2022/02/27 14:13:54;;;;;;;4.85;1.30;;;;;;;;;;4987236;28;20074;-78
2022/02/27 14:16:24;;;;;;;8.75;1.50;;;;;;;;;;4972417;28;20069;-78
2022/02/27 14:18:49;;;;;;;10.68;1.92;;;;;;;;;;4987672;28;20524;-78
2022/02/27 14:21:19;;;;;;;8.30;1.92;;;;;;;;;;4989356;28;20034;-78
2022/02/27 14:23:56;;;;;;;8.05;1.70;;;;;;;;;;4971452;28;20126;-78
2022/02/27 14:26:24;;;;;;;4.85;1.60;;;;;;;;;;4981384;28;20046;-78
2022/02/27 14:28:54;;;;;;;5.80;2.35;;;;;;;;;;4957650;28;20042;-78
2022/02/27 14:31:28;;;;;;;8.85;1.50;;;;;;;;;;4988274;28;20034;-78
2022/02/27 14:33:57;;;;;;;3.10;1.20;;;;;;;;;;5006476;28;20427;-78
2022/02/27 14:36:22;;;;;;;4.45;1.30;;;;;;;;;;4990560;28;20117;-78
2022/02/27 14:38:47;;;;;;;3.78;1.50;;;;;;;;;;4990527;28;20405;-79
2022/02/27 14:41:13;;;;;;;1.52;0.75;;;;;;;;;;4990249;28;20038;-78